Time;durP1;ratioP1;P1;durP2;ratioP2;P2;SDS_P1;SDS_P2;PMS_P1;PMS_P2;Temp;Humidity;BMP_temperature;BMP_pressure;BME280_temperature;BME280_humidity;BME280_pressure;Samples;Min_cycle;Max_cycle;Signal;HPM_P1;HPM_P2
2023/04/30 00:00:39;;;;;;;;;;;;;;;20.87;57.13;102169.22;5122535;28;19937;-55
2023/04/30 00:03:05;;;;;;;;;;;;;;;20.86;57.04;102164.84;5121339;28;19949;-52
2023/04/30 00:05:30;;;;;;;;;;;;;;;21.05;56.35;102168.31;5121464;28;19939;-49
2023/04/30 00:07:56;;;;;;;;;;;;;;;20.84;57.10;102167.78;5125575;28;19930;-50
2023/04/30 00:10:21;;;;;;;;;;;;;;;20.66;57.57;102163.22;5117710;28;20015;-55
2023/04/30 00:12:46;;;;;;;;;;;;;;;20.61;57.95;102171.25;5117381;28;19931;-51
2023/04/30 00:15:11;;;;;;;;;;;;;;;20.59;58.23;102171.47;5118859;28;20056;-53
2023/04/30 00:17:37;;;;;;;;;;;;;;;20.46;58.54;102169.75;5120463;28;20031;-49
2023/04/30 00:20:03;;;;;;;;;;;;;;;20.49;58.49;102168.47;5118223;28;19916;-48
2023/04/30 00:22:28;;;;;;;;;;;;;;;20.46;58.93;102169.75;5121459;28;20002;-51
2023/04/30 00:24:54;;;;;;;;;;;;;;;20.63;58.90;102161.78;5121702;28;19916;-54
2023/04/30 00:27:19;;;;;;;;;;;;;;;20.37;59.12;102175.72;5119346;28;20004;-51
2023/04/30 00:29:45;;;;;;;;;;;;;;;20.53;59.04;102168.81;5120068;28;19916;-52
2023/04/30 00:32:10;;;;;;;;;;;;;;;20.42;58.89;102174.00;5125369;28;19951;-52
2023/04/30 00:34:35;;;;;;;;;;;;;;;20.44;59.48;102173.78;5125442;28;19916;-51
2023/04/30 00:37:02;;;;;;;;;;;;;;;20.23;59.73;102173.19;5123172;28;20113;-50
2023/04/30 00:39:27;;;;;;;;;;;;;;;20.24;59.80;102172.13;5123282;28;19978;-55
2023/04/30 00:41:52;;;;;;;;;;;;;;;20.34;59.88;102177.03;5123323;28;19916;-50
2023/04/30 00:44:18;;;;;;;;;;;;;;;20.14;60.12;102177.25;5122647;28;19923;-53
2023/04/30 00:46:43;;;;;;;;;;;;;;;20.03;60.34;102181.56;5125956;28;19964;-52
2023/04/30 00:49:09;;;;;;;;;;;;;;;20.23;59.55;102185.94;5124091;28;19946;-53
2023/04/30 00:51:34;;;;;;;;;;;;;;;20.26;59.60;102188.19;5122802;28;20003;-51
2023/04/30 00:54:01;;;;;;;;;;;;;;;20.17;60.08;102187.66;5121971;28;19920;-49
2023/04/30 00:56:27;;;;;;;;;;;;;;;20.66;58.85;102190.38;5126487;28;19943;-53
2023/04/30 00:58:56;;;;;;;;;;;;;;;20.17;59.69;102193.09;5120746;28;19916;-51
2023/04/30 01:01:25;;;;;;;;;;;;;;;20.05;60.19;102187.59;5154331;27;19988;-54
2023/04/30 01:03:51;;;;;;;;;;;;;;;19.87;60.77;102183.81;5121883;28;19988;-52
2023/04/30 01:06:17;;;;;;;;;;;;;;;19.91;60.65;102190.47;5122857;28;19920;-52
2023/04/30 01:08:42;;;;;;;;;;;;;;;20.11;61.03;102183.16;5123563;28;19937;-49
2023/04/30 01:11:25;;;;;;;;;;;;;;;20.55;59.69;102188.47;5123822;28;19916;-52
2023/04/30 01:14:09;;;;;;;;;;;;;;;20.39;59.79;102187.19;5121536;28;19935;-51
2023/04/30 01:16:45;;;;;;;;;;;;;;;20.30;59.56;102181.28;5121374;28;19920;-51
2023/04/30 01:19:27;;;;;;;;;;;;;;;20.39;59.64;102185.31;5122657;28;19955;-50
2023/04/30 01:21:53;;;;;;;;;;;;;;;20.07;60.19;102182.81;5122503;28;19916;-50
2023/04/30 01:24:32;;;;;;;;;;;;;;;19.92;61.39;102181.28;5121139;28;19924;-50
2023/04/30 01:27:05;;;;;;;;;;;;;;;19.85;61.63;102176.94;5121670;28;19939;-52
2023/04/30 01:29:31;;;;;;;;;;;;;;;19.79;62.24;102181.38;5120787;28;19938;-48
2023/04/30 01:31:56;;;;;;;;;;;;;;;19.62;63.15;102176.56;5124504;28;19916;-51
2023/04/30 01:34:22;;;;;;;;;;;;;;;19.49;63.90;102172.09;5121579;28;19987;-51
2023/04/30 01:37:01;;;;;;;;;;;;;;;19.69;63.46;102171.03;5122345;28;19915;-55
2023/04/30 01:39:26;;;;;;;;;;;;;;;19.79;63.01;102178.66;5124490;28;19927;-51
2023/04/30 01:41:52;;;;;;;;;;;;;;;19.91;62.79;102174.19;5123630;28;19917;-52
2023/04/30 01:44:28;;;;;;;;;;;;;;;20.02;62.11;102174.47;5120255;28;19916;-50
2023/04/30 01:47:02;;;;;;;;;;;;;;;19.87;62.55;102172.97;5154284;27;19916;-51
2023/04/30 01:49:41;;;;;;;;;;;;;;;19.97;62.81;102174.34;5119880;28;19923;-53
2023/04/30 01:52:16;;;;;;;;;;;;;;;19.70;63.07;102182.72;5122228;28;19927;-50
2023/04/30 01:54:51;;;;;;;;;;;;;;;19.62;63.38;102187.41;5120885;28;19916;-53
2023/04/30 01:57:37;;;;;;;;;;;;;;;19.97;62.23;102183.31;5119083;28;19995;-49
2023/04/30 02:00:03;;;;;;;;;;;;;;;19.73;62.65;102185.00;5123209;28;19916;-48
2023/04/30 02:02:38;;;;;;;;;;;;;;;19.72;62.80;102186.91;5122502;28;19945;-51
2023/04/30 02:05:04;;;;;;;;;;;;;;;19.85;61.60;102183.22;5118937;28;19916;-51
2023/04/30 02:07:40;;;;;;;;;;;;;;;19.53;62.71;102186.03;5123926;28;19938;-51
2023/04/30 02:10:07;;;;;;;;;;;;;;;19.46;63.51;102187.97;5122215;28;19947;-53
2023/04/30 02:12:34;;;;;;;;;;;;;;;19.35;63.67;102187.63;5122025;28;19931;-50
2023/04/30 02:14:59;;;;;;;;;;;;;;;19.34;64.00;102185.97;5121694;28;19926;-53
2023/04/30 02:17:25;;;;;;;;;;;;;;;19.26;64.53;102191.69;5120514;28;19951;-54
2023/04/30 02:19:50;;;;;;;;;;;;;;;19.40;64.02;102188.88;5120678;28;19912;-51
2023/04/30 02:22:15;;;;;;;;;;;;;;;19.40;63.56;102186.16;5124179;28;19926;-51
2023/04/30 02:24:41;;;;;;;;;;;;;;;19.32;63.54;102184.53;5121530;28;19970;-55
2023/04/30 02:27:07;;;;;;;;;;;;;;;20.06;61.79;102184.66;5121635;28;19916;-54
2023/04/30 02:29:33;;;;;;;;;;;;;;;19.99;61.66;102185.78;5121844;28;19920;-55
2023/04/30 02:31:58;;;;;;;;;;;;;;;20.06;61.38;102191.97;5125496;28;19916;-48
2023/04/30 02:34:24;;;;;;;;;;;;;;;20.15;61.03;102190.63;5123471;28;19955;-53
2023/04/30 02:36:50;;;;;;;;;;;;;;;19.37;62.83;102184.69;5121910;28;19916;-54
2023/04/30 02:39:16;;;;;;;;;;;;;;;20.24;60.78;102190.31;5120773;28;20006;-54
2023/04/30 02:41:41;;;;;;;;;;;;;;;19.66;61.60;102181.53;5123789;28;19916;-54
2023/04/30 02:44:07;;;;;;;;;;;;;;;19.18;64.65;102186.53;5123794;28;19945;-51
2023/04/30 02:46:33;;;;;;;;;;;;;;;19.30;63.30;102184.75;5126711;28;19911;-52
2023/04/30 02:48:58;;;;;;;;;;;;;;;19.30;63.85;102183.94;5123934;28;20287;-54
2023/04/30 02:51:24;;;;;;;;;;;;;;;19.33;63.11;102181.59;5123641;28;19920;-57
2023/04/30 02:53:50;;;;;;;;;;;;;;;18.69;65.65;102178.91;5120177;28;19924;-54
2023/04/30 02:56:16;;;;;;;;;;;;;;;18.18;68.09;102184.13;5123383;28;19916;-53
2023/04/30 02:58:41;;;;;;;;;;;;;;;18.12;68.63;102181.47;5121745;28;19923;-50
2023/04/30 03:01:07;;;;;;;;;;;;;;;17.90;69.94;102182.50;5120930;28;19922;-54
2023/04/30 03:03:32;;;;;;;;;;;;;;;18.08;69.74;102178.34;5121245;28;19923;-50
2023/04/30 03:05:58;;;;;;;;;;;;;;;18.18;70.03;102181.41;5123770;28;19987;-52
2023/04/30 03:08:24;;;;;;;;;;;;;;;19.23;65.50;102184.00;5121991;28;19928;-53
2023/04/30 03:10:50;;;;;;;;;;;;;;;19.45;64.36;102186.31;5119848;28;19937;-49
2023/04/30 03:13:15;;;;;;;;;;;;;;;19.40;64.23;102184.25;5121085;28;19919;-53
2023/04/30 03:15:41;;;;;;;;;;;;;;;19.29;63.80;102191.22;5122231;28;20351;-50
2023/04/30 03:18:07;;;;;;;;;;;;;;;19.72;62.67;102194.19;5121518;28;19944;-50
2023/04/30 03:20:32;;;;;;;;;;;;;;;19.65;62.36;102193.44;5124537;28;19916;-50
2023/04/30 03:22:58;;;;;;;;;;;;;;;19.66;62.66;102186.97;5123211;28;19916;-54
2023/04/30 03:25:23;;;;;;;;;;;;;;;19.76;62.25;102182.69;5123844;28;19916;-51
2023/04/30 03:27:49;;;;;;;;;;;;;;;19.21;64.23;102169.81;5122347;28;19931;-50
2023/04/30 03:30:15;;;;;;;;;;;;;;;19.51;62.71;102179.16;5122541;28;19916;-53
2023/04/30 03:32:41;;;;;;;;;;;;;;;19.30;63.66;102173.91;5121052;28;19926;-53
2023/04/30 03:35:06;;;;;;;;;;;;;;;20.45;60.57;102184.41;5122534;28;19941;-55
2023/04/30 03:37:32;;;;;;;;;;;;;;;20.27;59.04;102176.28;5120138;28;19930;-52
2023/04/30 03:39:58;;;;;;;;;;;;;;;19.12;63.09;102168.41;5121161;28;19916;-52
2023/04/30 03:42:25;;;;;;;;;;;;;;;18.39;65.43;102171.34;5119540;28;19950;-53
2023/04/30 03:44:50;;;;;;;;;;;;;;;17.89;68.97;102167.31;5122538;28;20006;-51
2023/04/30 03:47:16;;;;;;;;;;;;;;;17.81;69.38;102172.97;5121899;28;19916;-52
2023/04/30 03:49:42;;;;;;;;;;;;;;;17.46;72.31;102165.94;5121152;28;19916;-54
2023/04/30 03:52:08;;;;;;;;;;;;;;;17.55;72.13;102171.97;5121009;28;19920;-53
2023/04/30 03:54:33;;;;;;;;;;;;;;;17.95;71.01;102170.22;5118444;28;19926;-48
2023/04/30 03:57:03;;;;;;;;;;;;;;;17.95;70.05;102170.22;5120417;28;19916;-54
2023/04/30 03:59:30;;;;;;;;;;;;;;;17.87;70.53;102168.56;5113959;28;19912;-51
2023/04/30 04:01:56;;;;;;;;;;;;;;;18.83;66.57;102170.69;5113117;28;19923;-55
2023/04/30 04:04:21;;;;;;;;;;;;;;;17.62;71.24;102169.25;5109380;28;19943;-52
2023/04/30 04:06:46;;;;;;;;;;;;;;;17.74;70.94;102166.72;5114067;28;20465;-53
2023/04/30 04:09:12;;;;;;;;;;;;;;;17.94;70.37;102174.81;5112844;28;19942;-50
2023/04/30 04:11:40;;;;;;;;;;;;;;;18.62;69.20;102178.94;5113008;28;19919;-53
2023/04/30 04:14:06;;;;;;;;;;;;;;;19.26;65.34;102183.53;5115001;28;19925;-50
2023/04/30 04:16:31;;;;;;;;;;;;;;;18.31;67.04;102182.44;5111249;28;19938;-50
2023/04/30 04:18:57;;;;;;;;;;;;;;;17.79;70.59;102180.47;5112752;28;19916;-53
2023/04/30 04:21:22;;;;;;;;;;;;;;;17.71;71.55;102186.09;5113063;28;19916;-49
2023/04/30 04:23:48;;;;;;;;;;;;;;;17.80;71.36;102184.84;5112867;28;19924;-52
2023/04/30 04:26:15;;;;;;;;;;;;;;;17.56;72.53;102186.31;5112657;28;19916;-52
2023/04/30 04:28:41;;;;;;;;;;;;;;;17.56;72.94;102179.06;5146565;27;19990;-50
2023/04/30 04:31:07;;;;;;;;;;;;;;;17.54;73.34;102183.84;5121024;28;19983;-56
2023/04/30 04:33:33;;;;;;;;;;;;;;;17.51;73.59;102178.81;5114028;28;19927;-50
2023/04/30 04:35:58;;;;;;;;;;;;;;;17.53;73.50;102179.47;5119729;28;19923;-51
2023/04/30 04:38:24;;;;;;;;;;;;;;;17.88;73.98;102184.59;5146893;27;19916;-54
2023/04/30 04:40:53;;;;;;;;;;;;;;;18.76;69.78;102182.41;5112682;28;19916;-51
2023/04/30 04:43:19;;;;;;;;;;;;;;;18.75;68.78;102179.91;5112825;28;19920;-52
2023/04/30 04:45:46;;;;;;;;;;;;;;;17.75;74.07;102180.06;5119979;28;19916;-53
2023/04/30 04:48:13;;;;;;;;;;;;;;;17.60;74.48;102188.41;5127393;28;19971;-51
2023/04/30 04:50:38;;;;;;;;;;;;;;;17.59;74.79;102184.03;5119565;28;19916;-52
2023/04/30 04:53:04;;;;;;;;;;;;;;;17.66;75.06;102185.91;5110476;28;19952;-52
2023/04/30 04:55:30;;;;;;;;;;;;;;;17.97;74.69;102187.91;5092630;28;19921;-55
2023/04/30 04:57:56;;;;;;;;;;;;;;;18.16;73.88;102191.63;5091066;28;19916;-50
2023/04/30 05:00:22;;;;;;;;;;;;;;;18.47;72.83;102197.34;5088083;28;19931;-52
2023/04/30 05:02:48;;;;;;;;;;;;;;;18.52;71.81;102194.81;5087610;28;19923;-48
2023/04/30 05:05:14;;;;;;;;;;;;;;;18.52;72.69;102202.13;5088947;28;19955;-53
2023/04/30 05:07:40;;;;;;;;;;;;;;;19.05;70.45;102203.72;5089334;28;19916;-48
2023/04/30 05:10:07;;;;;;;;;;;;;;;18.84;71.19;102199.44;5088168;28;19920;-52
2023/04/30 05:12:32;;;;;;;;;;;;;;;18.99;71.33;102193.75;5105087;28;19948;-51
2023/04/30 05:14:58;;;;;;;;;;;;;;;18.89;70.86;102199.63;5105464;28;19958;-52
2023/04/30 05:17:24;;;;;;;;;;;;;;;18.60;72.93;102196.44;5108881;28;19915;-51
2023/04/30 05:19:51;;;;;;;;;;;;;;;18.72;72.66;102189.31;5106470;28;19924;-52
2023/04/30 05:22:16;;;;;;;;;;;;;;;19.06;71.15;102197.25;5115859;28;19951;-52
2023/04/30 05:24:42;;;;;;;;;;;;;;;18.87;71.57;102196.28;5112906;28;19923;-51
2023/04/30 05:27:08;;;;;;;;;;;;;;;18.77;71.70;102188.63;5111932;28;19944;-57
2023/04/30 05:29:33;;;;;;;;;;;;;;;18.96;71.03;102192.28;5107869;28;19917;-50
2023/04/30 05:31:58;;;;;;;;;;;;;;;19.28;69.99;102200.41;5113140;28;19980;-54
2023/04/30 05:34:24;;;;;;;;;;;;;;;18.88;70.73;102190.66;5109590;28;20291;-53
2023/04/30 05:36:50;;;;;;;;;;;;;;;18.41;72.79;102193.63;5114460;28;19920;-56
2023/04/30 05:39:15;;;;;;;;;;;;;;;18.59;72.56;102184.81;5112391;28;19922;-56
2023/04/30 05:41:41;;;;;;;;;;;;;;;18.84;72.11;102196.72;5114754;28;19916;-52
2023/04/30 05:44:06;;;;;;;;;;;;;;;18.66;71.97;102190.16;5110768;28;19930;-55
2023/04/30 05:46:32;;;;;;;;;;;;;;;18.90;71.34;102201.28;5109645;28;19916;-51
2023/04/30 05:48:57;;;;;;;;;;;;;;;18.90;71.23;102193.16;5112217;28;19924;-51
2023/04/30 05:51:22;;;;;;;;;;;;;;;19.08;70.46;102194.31;5114347;28;19993;-54
2023/04/30 05:53:47;;;;;;;;;;;;;;;19.82;68.10;102194.50;5123752;28;19919;-54
2023/04/30 05:56:13;;;;;;;;;;;;;;;19.27;69.73;102192.53;5124733;28;19915;-54
2023/04/30 05:58:38;;;;;;;;;;;;;;;19.40;69.12;102194.28;5124131;27;20014;-52
2023/04/30 06:01:04;;;;;;;;;;;;;;;19.15;70.18;102198.66;5121502;28;19916;-53
2023/04/30 06:03:30;;;;;;;;;;;;;;;19.35;69.66;102192.22;5125362;28;19962;-52
2023/04/30 06:05:55;;;;;;;;;;;;;;;19.51;69.04;102200.88;5122670;28;19916;-53
2023/04/30 06:08:20;;;;;;;;;;;;;;;19.92;67.91;102197.56;5123842;28;19920;-55
2023/04/30 06:10:46;;;;;;;;;;;;;;;19.74;67.89;102197.50;5123759;28;20306;-53
2023/04/30 06:13:13;;;;;;;;;;;;;;;19.73;68.21;102195.84;5122855;28;19928;-56
2023/04/30 06:15:38;;;;;;;;;;;;;;;19.65;68.76;102202.41;5123546;28;19958;-54
2023/04/30 06:18:04;;;;;;;;;;;;;;;19.32;70.50;102196.22;5118313;28;19916;-50
2023/04/30 06:20:29;;;;;;;;;;;;;;;19.49;69.99;102199.22;5115695;28;19984;-51
2023/04/30 06:22:55;;;;;;;;;;;;;;;19.56;70.25;102199.13;5119091;28;19916;-55
2023/04/30 06:25:20;;;;;;;;;;;;;;;19.74;69.25;102202.94;5117294;28;19920;-55
2023/04/30 06:27:45;;;;;;;;;;;;;;;19.46;70.50;102194.22;5115840;28;19955;-55
2023/04/30 06:30:11;;;;;;;;;;;;;;;19.36;71.30;102193.91;5119871;28;19935;-50
2023/04/30 06:32:36;;;;;;;;;;;;;;;19.35;71.50;102197.66;5116106;28;19923;-49
2023/04/30 06:35:02;;;;;;;;;;;;;;;19.96;70.01;102195.25;5117764;28;19916;-49
2023/04/30 06:37:27;;;;;;;;;;;;;;;20.40;69.11;102206.00;5118404;28;19916;-54
2023/04/30 06:39:52;;;;;;;;;;;;;;;20.48;68.59;102205.66;5117307;28;20287;-55
2023/04/30 06:42:18;;;;;;;;;;;;;;;20.93;67.60;102203.63;5117621;28;19916;-51
2023/04/30 06:44:44;;;;;;;;;;;;;;;20.64;68.16;102206.09;5118015;28;19916;-51
2023/04/30 06:47:09;;;;;;;;;;;;;;;20.67;67.56;102213.78;5122471;28;19923;-50
2023/04/30 06:49:35;;;;;;;;;;;;;;;20.66;68.13;102212.13;5122551;28;19971;-51
2023/04/30 06:52:00;;;;;;;;;;;;;;;20.91;67.49;102213.91;5118006;28;19920;-49
2023/04/30 06:54:26;;;;;;;;;;;;;;;21.00;66.53;102212.53;5108789;28;19920;-52
2023/04/30 06:56:52;;;;;;;;;;;;;;;20.86;66.04;102217.31;5111680;28;19958;-52
2023/04/30 06:59:18;;;;;;;;;;;;;;;21.02;65.80;102215.00;5106391;28;19916;-50
2023/04/30 07:01:43;;;;;;;;;;;;;;;21.00;65.69;102222.56;5108658;28;19916;-48
2023/04/30 07:04:08;;;;;;;;;;;;;;;21.09;65.46;102215.72;5107662;28;19923;-52
2023/04/30 07:06:34;;;;;;;;;;;;;;;20.96;65.43;102227.63;5110437;28;19912;-53
2023/04/30 07:09:00;;;;;;;;;;;;;;;20.88;65.78;102225.25;5107681;28;19957;-50
2023/04/30 07:11:26;;;;;;;;;;;;;;;20.87;65.93;102231.75;5111693;28;19916;-50
2023/04/30 07:13:52;;;;;;;;;;;;;;;20.62;66.00;102232.69;5106334;28;19927;-50
2023/04/30 07:16:18;;;;;;;;;;;;;;;21.46;64.21;102237.31;5103334;28;19926;-55
2023/04/30 07:18:43;;;;;;;;;;;;;;;21.45;63.93;102232.09;5108849;28;19916;-52
2023/04/30 07:21:09;;;;;;;;;;;;;;;21.50;63.44;102234.97;5109127;28;19927;-51
2023/04/30 07:23:34;;;;;;;;;;;;;;;21.32;64.01;102236.72;5092388;28;19987;-50
2023/04/30 07:26:00;;;;;;;;;;;;;;;21.81;63.07;102235.72;5111787;28;19919;-50
2023/04/30 07:28:25;;;;;;;;;;;;;;;21.92;62.60;102229.44;5109141;28;19916;-52
2023/04/30 07:30:51;;;;;;;;;;;;;;;21.72;62.90;102223.53;5110241;28;20586;-53
2023/04/30 07:33:17;;;;;;;;;;;;;;;21.74;63.09;102233.09;5109992;28;19916;-53
2023/04/30 07:35:42;;;;;;;;;;;;;;;21.73;62.97;102220.56;5102721;28;19980;-53
2023/04/30 07:38:08;;;;;;;;;;;;;;;21.64;63.38;102221.94;5109156;28;19931;-53
2023/04/30 07:40:33;;;;;;;;;;;;;;;21.98;62.72;102226.81;5107047;28;19916;-53
2023/04/30 07:42:58;;;;;;;;;;;;;;;21.96;62.70;102223.50;5107493;28;19951;-49
2023/04/30 07:45:24;;;;;;;;;;;;;;;21.69;63.08;102219.38;5106963;28;19917;-53
2023/04/30 07:47:49;;;;;;;;;;;;;;;21.86;62.45;102222.19;5108450;28;19924;-50
2023/04/30 07:50:15;;;;;;;;;;;;;;;22.12;61.36;102222.75;5109716;28;20013;-55
2023/04/30 07:52:41;;;;;;;;;;;;;;;22.13;61.94;102223.59;5103531;28;19931;-50
2023/04/30 07:55:07;;;;;;;;;;;;;;;22.18;62.11;102231.88;5107214;28;19983;-49
2023/04/30 07:57:32;;;;;;;;;;;;;;;22.48;61.36;102222.69;5100404;28;19923;-50
2023/04/30 07:59:58;;;;;;;;;;;;;;;22.39;61.30;102230.41;5101376;28;19923;-53
2023/04/30 08:02:23;;;;;;;;;;;;;;;22.55;60.83;102230.72;5106175;28;19940;-51
2023/04/30 08:04:48;;;;;;;;;;;;;;;22.48;60.84;102228.97;5102757;28;19924;-51
2023/04/30 08:07:17;;;;;;;;;;;;;;;22.62;60.21;102234.16;5106036;28;19950;-55
2023/04/30 08:09:42;;;;;;;;;;;;;;;22.61;60.29;102232.50;5100745;28;19983;-53
2023/04/30 08:12:08;;;;;;;;;;;;;;;22.48;60.75;102236.31;5103314;28;19927;-52
2023/04/30 08:14:34;;;;;;;;;;;;;;;22.69;60.46;102232.09;5101465;28;19916;-55
2023/04/30 08:17:01;;;;;;;;;;;;;;;22.85;59.83;102238.66;5102328;28;19919;-50
2023/04/30 08:19:27;;;;;;;;;;;;;;;22.95;59.20;102237.19;5102855;28;19916;-50
2023/04/30 08:21:52;;;;;;;;;;;;;;;23.04;59.21;102244.72;5099675;28;19916;-54
2023/04/30 08:24:17;;;;;;;;;;;;;;;23.13;58.61;102245.16;5099696;28;19952;-51
2023/04/30 08:26:43;;;;;;;;;;;;;;;23.23;58.84;102239.03;5100171;28;19943;-54
2023/04/30 08:29:08;;;;;;;;;;;;;;;23.16;58.52;102246.56;5100534;28;19979;-53
2023/04/30 08:31:34;;;;;;;;;;;;;;;23.06;59.27;102241.75;5099815;28;19951;-54
2023/04/30 08:33:59;;;;;;;;;;;;;;;23.12;58.60;102245.41;5100555;28;20485;-52
2023/04/30 08:36:24;;;;;;;;;;;;;;;23.77;57.59;102240.47;5098161;28;19926;-56
2023/04/30 08:38:50;;;;;;;;;;;;;;;23.94;56.71;102243.16;5105540;28;19916;-54
2023/04/30 08:41:16;;;;;;;;;;;;;;;23.84;56.95;102238.38;5103435;28;19923;-54
2023/04/30 08:43:43;;;;;;;;;;;;;;;23.93;56.94;102241.50;5105797;28;19950;-57
2023/04/30 08:46:11;;;;;;;;;;;;;;;23.96;57.06;102240.16;5102136;28;19987;-51
2023/04/30 08:48:38;;;;;;;;;;;;;;;24.17;56.68;102244.84;5105337;28;19952;-52
2023/04/30 08:51:04;;;;;;;;;;;;;;;23.99;56.84;102236.91;5099715;28;19927;-53
2023/04/30 08:53:30;;;;;;;;;;;;;;;23.96;56.86;102245.63;5107422;28;19988;-51
2023/04/30 08:55:56;;;;;;;;;;;;;;;23.81;56.41;102238.03;5106721;28;19920;-51
2023/04/30 08:58:21;;;;;;;;;;;;;;;24.06;56.55;102243.06;5108804;28;19921;-53
2023/04/30 09:00:46;;;;;;;;;;;;;;;24.21;55.77;102245.16;5090276;28;19961;-54
2023/04/30 09:03:12;;;;;;;;;;;;;;;24.04;55.97;102239.78;5106565;28;19900;-52
2023/04/30 09:05:39;;;;;;;;;;;;;;;24.38;55.64;102245.09;5106907;28;19951;-51
2023/04/30 09:08:05;;;;;;;;;;;;;;;24.68;55.19;102241.06;5107795;28;19916;-52
2023/04/30 09:10:31;;;;;;;;;;;;;;;24.94;54.20;102241.38;5113377;28;19920;-54
2023/04/30 09:13:03;;;;;;;;;;;;;;;25.13;53.90;102239.06;5115793;28;19927;-51
2023/04/30 09:15:30;;;;;;;;;;;;;;;25.00;54.06;102234.84;5106528;28;19916;-52
2023/04/30 09:18:18;;;;;;;;;;;;;;;25.26;54.09;102235.06;5106806;28;19978;-54
2023/04/30 09:20:57;;;;;;;;;;;;;;;25.89;52.48;102237.16;5104456;28;19916;-52
2023/04/30 09:23:22;;;;;;;;;;;;;;;26.50;50.99;102245.94;5114154;28;19928;-51
2023/04/30 09:25:48;;;;;;;;;;;;;;;26.96;49.64;102239.72;5108554;28;19942;-55
2023/04/30 09:28:13;;;;;;;;;;;;;;;27.63;48.33;102247.13;5105005;28;19920;-54
2023/04/30 09:30:40;;;;;;;;;;;;;;;28.34;47.09;102238.94;5108918;28;19950;-55
2023/04/30 09:33:05;;;;;;;;;;;;;;;28.69;45.59;102244.50;5111317;28;19924;-56
2023/04/30 09:35:32;;;;;;;;;;;;;;;28.80;45.29;102242.53;5111962;28;19916;-52
2023/04/30 09:38:01;;;;;;;;;;;;;;;29.20;44.80;102246.09;5107514;28;19916;-51
2023/04/30 09:40:40;;;;;;;;;;;;;;;29.60;43.63;102241.31;5109272;28;20020;-56
2023/04/30 09:43:06;;;;;;;;;;;;;;;30.31;42.66;102238.00;5103329;28;19920;-52
2023/04/30 09:45:42;;;;;;;;;;;;;;;30.76;41.98;102237.66;5104207;28;19988;-55
2023/04/30 09:48:07;;;;;;;;;;;;;;;31.66;40.08;102246.09;5106123;28;19916;-53
2023/04/30 09:50:36;;;;;;;;;;;;;;;31.66;39.57;102241.38;5108660;28;19911;-53
2023/04/30 09:53:06;;;;;;;;;;;;;;;31.80;38.95;102241.41;5115507;28;19908;-53
2023/04/30 09:55:33;;;;;;;;;;;;;;;32.49;38.23;102234.16;5123127;28;19923;-54
2023/04/30 09:57:59;;;;;;;;;;;;;;;33.00;37.54;102237.69;5124399;28;19975;-54
2023/04/30 10:00:25;;;;;;;;;;;;;;;33.36;36.00;102235.09;5121712;28;19923;-51
2023/04/30 10:02:50;;;;;;;;;;;;;;;33.24;35.64;102233.75;5123498;28;19979;-54
2023/04/30 10:05:16;;;;;;;;;;;;;;;33.36;35.79;102237.84;5122058;28;19916;-53
2023/04/30 10:07:41;;;;;;;;;;;;;;;33.41;35.66;102229.38;5121896;28;19915;-53
2023/04/30 10:10:08;;;;;;;;;;;;;;;34.05;34.40;102236.50;5122336;28;19912;-55
2023/04/30 10:12:39;;;;;;;;;;;;;;;34.39;34.09;102228.53;5122108;28;19986;-52
2023/04/30 10:15:09;;;;;;;;;;;;;;;35.28;32.46;102230.09;5121759;28;19920;-55
2023/04/30 10:17:39;;;;;;;;;;;;;;;35.37;32.36;102228.09;5122143;28;19943;-56
2023/04/30 10:20:06;;;;;;;;;;;;;;;35.68;32.06;102220.63;5122564;28;19935;-55
2023/04/30 10:22:33;;;;;;;;;;;;;;;35.83;31.21;102228.38;5124139;28;19920;-54
2023/04/30 10:24:58;;;;;;;;;;;;;;;36.05;31.12;102223.69;5120512;28;19923;-53
2023/04/30 10:27:24;;;;;;;;;;;;;;;35.83;31.33;102213.66;5121798;28;19924;-54
2023/04/30 10:29:49;;;;;;;;;;;;;;;36.43;30.77;102225.50;5121290;28;19950;-54
2023/04/30 10:32:15;;;;;;;;;;;;;;;36.30;30.00;102218.25;5121810;28;19924;-55
2023/04/30 10:34:44;;;;;;;;;;;;;;;35.81;29.89;102213.16;5116429;28;19927;-54
2023/04/30 10:37:33;;;;;;;;;;;;;;;36.21;29.86;102220.28;5118734;28;19919;-52
2023/04/30 10:40:00;;;;;;;;;;;;;;;36.51;29.53;102228.56;5120909;28;19926;-55
2023/04/30 10:42:26;;;;;;;;;;;;;;;36.85;29.32;102215.47;5116690;28;19926;-55
2023/04/30 10:44:52;;;;;;;;;;;;;;;37.09;29.01;102223.13;5120886;28;19948;-56
2023/04/30 10:47:18;;;;;;;;;;;;;;;37.27;29.20;102214.53;5118283;28;19949;-54
2023/04/30 10:49:48;;;;;;;;;;;;;;;37.18;28.82;102217.44;5119892;28;19987;-56
2023/04/30 10:52:13;;;;;;;;;;;;;;;37.58;27.95;102216.75;5113316;28;19999;-54
2023/04/30 10:54:48;;;;;;;;;;;;;;;37.79;28.38;102215.81;5102792;28;19996;-50
2023/04/30 10:57:16;;;;;;;;;;;;;;;37.67;28.42;102202.69;5102357;28;19927;-51
2023/04/30 10:59:44;;;;;;;;;;;;;;;37.63;28.01;102206.56;5101489;28;19950;-53
2023/04/30 11:02:09;;;;;;;;;;;;;;;38.00;27.95;102206.50;5102110;28;19916;-57
2023/04/30 11:04:55;;;;;;;;;;;;;;;38.11;27.72;102204.03;5100877;28;19938;-52
2023/04/30 11:07:24;;;;;;;;;;;;;;;38.64;27.43;102206.75;5081568;28;19948;-55
2023/04/30 11:09:49;;;;;;;;;;;;;;;39.07;26.72;102200.69;5098249;28;19916;-54
2023/04/30 11:12:27;;;;;;;;;;;;;;;39.10;26.97;102194.38;5102137;28;19911;-52
2023/04/30 11:14:57;;;;;;;;;;;;;;;39.38;26.11;102188.72;5099488;28;19924;-56
2023/04/30 11:17:23;;;;;;;;;;;;;;;39.66;26.77;102186.91;5095634;28;19924;-56
2023/04/30 11:19:49;;;;;;;;;;;;;;;39.71;26.49;102178.25;5099757;28;19924;-57
2023/04/30 11:22:15;;;;;;;;;;;;;;;39.79;26.57;102185.63;5096816;28;19904;-57
2023/04/30 11:24:56;;;;;;;;;;;;;;;39.54;26.20;102179.44;5100382;28;19916;-58
2023/04/30 11:27:22;;;;;;;;;;;;;;;39.82;25.84;102187.72;5098182;28;19912;-56
2023/04/30 11:29:48;;;;;;;;;;;;;;;39.81;25.94;102172.06;5101599;28;19927;-58
2023/04/30 11:32:14;;;;;;;;;;;;;;;40.30;25.35;102175.50;5096076;28;19984;-55
2023/04/30 11:34:42;;;;;;;;;;;;;;;41.12;24.95;102180.97;5098496;28;19987;-56
2023/04/30 11:37:08;;;;;;;;;;;;;;;41.00;24.14;102167.97;5100458;28;19916;-56
2023/04/30 11:39:34;;;;;;;;;;;;;;;41.39;24.71;102166.19;5101244;28;19917;-56
2023/04/30 11:42:01;;;;;;;;;;;;;;;41.34;24.55;102163.72;5098250;28;20122;-58
2023/04/30 11:44:27;;;;;;;;;;;;;;;41.79;23.53;102161.97;5098876;28;19916;-58
2023/04/30 11:46:53;;;;;;;;;;;;;;;41.87;23.91;102162.03;5099492;28;19937;-55
2023/04/30 11:49:21;;;;;;;;;;;;;;;41.96;23.40;102162.53;5101580;28;19917;-58
2023/04/30 11:51:48;;;;;;;;;;;;;;;42.35;23.13;102150.97;5100195;28;19916;-53
2023/04/30 11:54:14;;;;;;;;;;;;;;;42.03;23.82;102153.44;5107486;28;19920;-56
2023/04/30 11:56:39;;;;;;;;;;;;;;;42.04;23.19;102146.63;5101235;28;20088;-54
2023/04/30 11:59:11;;;;;;;;;;;;;;;42.64;22.48;102147.66;5096621;28;19927;-58
2023/04/30 12:01:36;;;;;;;;;;;;;;;42.25;22.99;102143.25;5098859;28;19920;-58
2023/04/30 12:04:03;;;;;;;;;;;;;;;42.72;22.18;102140.88;5099422;28;20026;-54
2023/04/30 12:06:29;;;;;;;;;;;;;;;42.86;22.29;102148.63;5098234;28;19975;-56
2023/04/30 12:08:56;;;;;;;;;;;;;;;42.99;22.34;102141.53;5095246;28;19916;-56
2023/04/30 12:11:26;;;;;;;;;;;;;;;42.81;22.55;102137.75;5093971;28;19920;-57
2023/04/30 12:13:55;;;;;;;;;;;;;;;43.32;22.35;102135.31;5092309;28;19924;-56
2023/04/30 12:16:20;;;;;;;;;;;;;;;42.83;21.75;102144.59;5095553;28;19973;-53
2023/04/30 12:18:46;;;;;;;;;;;;;;;42.76;22.06;102138.91;5100046;28;19920;-53
2023/04/30 12:21:12;;;;;;;;;;;;;;;42.99;21.45;102133.09;5103829;28;19916;-54
2023/04/30 12:23:37;;;;;;;;;;;;;;;43.27;21.70;102134.47;5103055;28;19940;-54
2023/04/30 12:26:02;;;;;;;;;;;;;;;43.34;21.15;102136.56;5108105;28;19916;-56
2023/04/30 12:28:28;;;;;;;;;;;;;;;42.94;21.99;102132.66;5106078;28;20005;-55
2023/04/30 12:30:53;;;;;;;;;;;;;;;43.54;21.47;102127.81;5099434;28;19939;-55
2023/04/30 12:33:19;;;;;;;;;;;;;;;43.79;20.96;102127.94;5104335;28;19936;-56